sensor_id;sensor_type;location;lat;lon;timestamp;pressure;altitude;pressure_sealevel;temperature;humidity
41222;BME280;26952;42.884;23.918;2023-03-25T00:01:05;95421.22;;;8.65;94.81
41222;BME280;26952;42.884;23.918;2023-03-25T00:03:38;95425.56;;;8.50;95.65
41222;BME280;26952;42.884;23.918;2023-03-25T00:06:09;95422.75;;;8.43;95.94
41222;BME280;26952;42.884;23.918;2023-03-25T00:08:36;95429.03;;;8.43;96.59
41222;BME280;26952;42.884;23.918;2023-03-25T00:11:02;95420.47;;;8.40;96.83
41222;BME280;26952;42.884;23.918;2023-03-25T00:13:32;95425.38;;;8.52;95.64
41222;BME280;26952;42.884;23.918;2023-03-25T00:15:58;95424.41;;;8.44;97.12
41222;BME280;26952;42.884;23.918;2023-03-25T00:18:26;95416.50;;;8.44;96.87
41222;BME280;26952;42.884;23.918;2023-03-25T00:20:53;95400.41;;;8.23;97.96
41222;BME280;26952;42.884;23.918;2023-03-25T00:23:20;95409.75;;;8.42;97.58
41222;BME280;26952;42.884;23.918;2023-03-25T00:25:46;95400.84;;;8.43;96.49
41222;BME280;26952;42.884;23.918;2023-03-25T00:28:12;95406.47;;;8.40;97.98
41222;BME280;26952;42.884;23.918;2023-03-25T00:30:38;95413.19;;;8.51;96.05
41222;BME280;26952;42.884;23.918;2023-03-25T00:33:04;95376.38;;;8.26;97.14
41222;BME280;26952;42.884;23.918;2023-03-25T00:35:29;95398.84;;;8.45;96.67
41222;BME280;26952;42.884;23.918;2023-03-25T00:37:55;95367.63;;;8.26;97.17
41222;BME280;26952;42.884;23.918;2023-03-25T00:40:29;95391.25;;;8.50;96.94
41222;BME280;26952;42.884;23.918;2023-03-25T00:42:55;95390.78;;;8.47;96.09
41222;BME280;26952;42.884;23.918;2023-03-25T00:45:21;95401.13;;;8.56;96.63
41222;BME280;26952;42.884;23.918;2023-03-25T00:47:47;95381.06;;;8.47;96.70
41222;BME280;26952;42.884;23.918;2023-03-25T00:50:12;95385.28;;;8.56;96.23
41222;BME280;26952;42.884;23.918;2023-03-25T00:52:38;95404.19;;;8.29;99.40
41222;BME280;26952;42.884;23.918;2023-03-25T00:55:04;95376.00;;;8.37;96.77
41222;BME280;26952;42.884;23.918;2023-03-25T00:57:30;95381.47;;;8.28;99.19
41222;BME280;26952;42.884;23.918;2023-03-25T00:59:56;95355.44;;;8.17;99.49
41222;BME280;26952;42.884;23.918;2023-03-25T01:02:22;95368.59;;;8.33;98.44
41222;BME280;26952;42.884;23.918;2023-03-25T01:04:47;95348.16;;;8.27;97.48
41222;BME280;26952;42.884;23.918;2023-03-25T01:07:17;95378.09;;;8.42;97.86
41222;BME280;26952;42.884;23.918;2023-03-25T01:09:45;95348.44;;;8.40;97.85
41222;BME280;26952;42.884;23.918;2023-03-25T01:12:12;95361.75;;;8.47;97.13
41222;BME280;26952;42.884;23.918;2023-03-25T01:14:38;95354.03;;;8.45;97.43
41222;BME280;26952;42.884;23.918;2023-03-25T01:17:04;95353.06;;;8.46;97.10
41222;BME280;26952;42.884;23.918;2023-03-25T01:19:29;95339.91;;;8.38;96.24
41222;BME280;26952;42.884;23.918;2023-03-25T01:21:55;95358.59;;;8.59;95.88
41222;BME280;26952;42.884;23.918;2023-03-25T01:24:20;95355.66;;;8.54;96.59
41222;BME280;26952;42.884;23.918;2023-03-25T01:26:46;95347.34;;;8.65;95.77
41222;BME280;26952;42.884;23.918;2023-03-25T01:29:15;95341.59;;;8.62;95.24
41222;BME280;26952;42.884;23.918;2023-03-25T01:31:40;95335.44;;;8.69;93.60
41222;BME280;26952;42.884;23.918;2023-03-25T01:34:06;95347.59;;;8.78;92.68
41222;BME280;26952;42.884;23.918;2023-03-25T01:36:32;95348.56;;;8.77;94.32
41222;BME280;26952;42.884;23.918;2023-03-25T01:39:00;95337.44;;;8.67;94.64
41222;BME280;26952;42.884;23.918;2023-03-25T01:41:27;95346.50;;;8.65;94.90
41222;BME280;26952;42.884;23.918;2023-03-25T01:45:02;95325.59;;;8.63;94.00
41222;BME280;26952;42.884;23.918;2023-03-25T01:46:55;95327.91;;;8.58;94.92
41222;BME280;26952;42.884;23.918;2023-03-25T01:49:27;95313.91;;;8.58;94.19
41222;BME280;26952;42.884;23.918;2023-03-25T01:52:07;95318.69;;;8.62;94.91
41222;BME280;26952;42.884;23.918;2023-03-25T01:54:35;95322.25;;;8.69;93.27
41222;BME280;26952;42.884;23.918;2023-03-25T01:57:03;95329.22;;;8.62;94.51
41222;BME280;26952;42.884;23.918;2023-03-25T01:59:29;95316.72;;;8.56;95.57
41222;BME280;26952;42.884;23.918;2023-03-25T02:01:57;95315.78;;;8.49;97.06
41222;BME280;26952;42.884;23.918;2023-03-25T02:04:30;95310.03;;;8.46;95.73
41222;BME280;26952;42.884;23.918;2023-03-25T02:06:59;95310.34;;;8.51;95.60
41222;BME280;26952;42.884;23.918;2023-03-25T02:09:25;95296.66;;;8.47;96.40
41222;BME280;26952;42.884;23.918;2023-03-25T02:11:51;95312.50;;;8.47;96.58
41222;BME280;26952;42.884;23.918;2023-03-25T02:14:22;95291.56;;;8.46;96.51
41222;BME280;26952;42.884;23.918;2023-03-25T02:27:35;95304.06;;;8.52;95.91
41222;BME280;26952;42.884;23.918;2023-03-25T02:30:11;95308.34;;;8.53;96.38
41222;BME280;26952;42.884;23.918;2023-03-25T02:33:49;95299.34;;;8.39;97.00
41222;BME280;26952;42.884;23.918;2023-03-25T02:42:17;95297.28;;;8.57;94.99
41222;BME280;26952;42.884;23.918;2023-03-25T02:45:01;95314.16;;;8.40;97.70
41222;BME280;26952;42.884;23.918;2023-03-25T02:47:37;95284.56;;;8.22;99.02
41222;BME280;26952;42.884;23.918;2023-03-25T02:50:09;95305.16;;;8.34;98.90
41222;BME280;26952;42.884;23.918;2023-03-25T02:52:42;95297.38;;;8.41;97.58
41222;BME280;26952;42.884;23.918;2023-03-25T02:55:11;95292.91;;;8.41;97.20
41222;BME280;26952;42.884;23.918;2023-03-25T02:57:41;95295.66;;;8.48;96.36
41222;BME280;26952;42.884;23.918;2023-03-25T03:00:09;95277.03;;;8.50;96.18
41222;BME280;26952;42.884;23.918;2023-03-25T03:02:53;95282.13;;;8.51;95.28
41222;BME280;26952;42.884;23.918;2023-03-25T03:05:35;95271.00;;;8.41;96.38
41222;BME280;26952;42.884;23.918;2023-03-25T03:10:49;95283.66;;;8.46;97.22
41222;BME280;26952;42.884;23.918;2023-03-25T03:19:37;95283.91;;;8.28;99.65
41222;BME280;26952;42.884;23.918;2023-03-25T03:21:37;95285.91;;;8.26;99.25
41222;BME280;26952;42.884;23.918;2023-03-25T03:29:45;95284.06;;;8.34;99.30
41222;BME280;26952;42.884;23.918;2023-03-25T03:32:18;95280.59;;;8.34;99.16
41222;BME280;26952;42.884;23.918;2023-03-25T03:34:49;95284.22;;;8.33;99.06
41222;BME280;26952;42.884;23.918;2023-03-25T03:37:17;95290.47;;;8.32;99.23
41222;BME280;26952;42.884;23.918;2023-03-25T03:39:46;95298.38;;;8.32;100.00
41222;BME280;26952;42.884;23.918;2023-03-25T03:44:48;95279.44;;;8.28;98.64
41222;BME280;26952;42.884;23.918;2023-03-25T03:47:20;95291.44;;;8.39;97.94
41222;BME280;26952;42.884;23.918;2023-03-25T03:49:51;95290.31;;;8.33;98.19
41222;BME280;26952;42.884;23.918;2023-03-25T03:52:20;95299.69;;;8.36;98.72
41222;BME280;26952;42.884;23.918;2023-03-25T03:54:59;95304.56;;;8.47;97.18
41222;BME280;26952;42.884;23.918;2023-03-25T03:57:50;95298.44;;;8.55;96.96
41222;BME280;26952;42.884;23.918;2023-03-25T04:00:24;95307.81;;;8.57;96.57
41222;BME280;26952;42.884;23.918;2023-03-25T04:02:59;95297.94;;;8.51;96.77
41222;BME280;26952;42.884;23.918;2023-03-25T04:05:26;95301.59;;;8.50;95.99
41222;BME280;26952;42.884;23.918;2023-03-25T04:08:03;95297.63;;;8.54;95.22
41222;BME280;26952;42.884;23.918;2023-03-25T04:10:43;95295.97;;;8.53;95.05
41222;BME280;26952;42.884;23.918;2023-03-25T04:13:12;95305.50;;;8.62;94.41
41222;BME280;26952;42.884;23.918;2023-03-25T04:15:40;95301.63;;;8.73;92.50
41222;BME280;26952;42.884;23.918;2023-03-25T04:18:06;95296.91;;;8.60;93.51
41222;BME280;26952;42.884;23.918;2023-03-25T04:20:33;95306.28;;;8.63;94.18
41222;BME280;26952;42.884;23.918;2023-03-25T04:23:01;95303.22;;;8.59;94.55
41222;BME280;26952;42.884;23.918;2023-03-25T04:25:29;95316.63;;;8.72;93.67
41222;BME280;26952;42.884;23.918;2023-03-25T04:27:57;95311.50;;;8.71;91.87
41222;BME280;26952;42.884;23.918;2023-03-25T04:30:25;95317.41;;;8.50;94.39
41222;BME280;26952;42.884;23.918;2023-03-25T04:32:51;95295.16;;;8.53;92.06
41222;BME280;26952;42.884;23.918;2023-03-25T04:35:18;95323.91;;;8.70;91.90
41222;BME280;26952;42.884;23.918;2023-03-25T04:37:46;95328.78;;;8.81;92.39
41222;BME280;26952;42.884;23.918;2023-03-25T04:40:17;95329.69;;;8.96;90.10
41222;BME280;26952;42.884;23.918;2023-03-25T04:42:46;95323.09;;;8.92;90.76
41222;BME280;26952;42.884;23.918;2023-03-25T04:45:13;95326.88;;;8.98;90.15
41222;BME280;26952;42.884;23.918;2023-03-25T04:47:45;95319.13;;;8.96;90.24
41222;BME280;26952;42.884;23.918;2023-03-25T04:50:18;95328.66;;;8.97;91.20
41222;BME280;26952;42.884;23.918;2023-03-25T04:52:44;95312.06;;;8.89;91.48
41222;BME280;26952;42.884;23.918;2023-03-25T04:55:11;95331.50;;;8.65;94.21
41222;BME280;26952;42.884;23.918;2023-03-25T04:57:45;95340.34;;;8.80;93.75
41222;BME280;26952;42.884;23.918;2023-03-25T05:00:12;95334.25;;;9.02;92.08
41222;BME280;26952;42.884;23.918;2023-03-25T05:02:46;95335.75;;;8.97;92.52
41222;BME280;26952;42.884;23.918;2023-03-25T05:05:16;95339.16;;;9.05;92.29
41222;BME280;26952;42.884;23.918;2023-03-25T05:07:48;95349.72;;;9.05;92.41
41222;BME280;26952;42.884;23.918;2023-03-25T05:10:19;95338.53;;;9.03;91.79
41222;BME280;26952;42.884;23.918;2023-03-25T05:12:45;95346.00;;;9.22;91.38
41222;BME280;26952;42.884;23.918;2023-03-25T05:15:11;95334.34;;;9.31;90.70
41222;BME280;26952;42.884;23.918;2023-03-25T05:17:37;95332.22;;;9.49;89.26
41222;BME280;26952;42.884;23.918;2023-03-25T05:20:04;95336.81;;;9.70;88.28
41222;BME280;26952;42.884;23.918;2023-03-25T05:22:38;95341.59;;;10.04;86.36
41222;BME280;26952;42.884;23.918;2023-03-25T05:25:05;95337.91;;;10.27;83.61
41222;BME280;26952;42.884;23.918;2023-03-25T05:27:31;95313.69;;;10.45;82.05
41222;BME280;26952;42.884;23.918;2023-03-25T05:29:57;95352.09;;;10.91;80.79
41222;BME280;26952;42.884;23.918;2023-03-25T05:32:26;95339.78;;;11.19;78.69
41222;BME280;26952;42.884;23.918;2023-03-25T05:34:55;95342.09;;;11.50;77.27
41222;BME280;26952;42.884;23.918;2023-03-25T05:37:21;95342.41;;;11.82;74.22
41222;BME280;26952;42.884;23.918;2023-03-25T05:39:46;95340.97;;;12.07;74.27
41222;BME280;26952;42.884;23.918;2023-03-25T05:42:13;95331.72;;;12.31;72.88
41222;BME280;26952;42.884;23.918;2023-03-25T05:44:38;95335.00;;;12.74;71.03
41222;BME280;26952;42.884;23.918;2023-03-25T05:47:11;95333.06;;;13.02;68.41
41222;BME280;26952;42.884;23.918;2023-03-25T05:49:36;95342.75;;;13.29;64.46
41222;BME280;26952;42.884;23.918;2023-03-25T05:52:02;95336.44;;;13.43;66.09
41222;BME280;26952;42.884;23.918;2023-03-25T05:54:27;95335.03;;;13.60;62.49
41222;BME280;26952;42.884;23.918;2023-03-25T05:56:53;95335.00;;;13.79;63.31
41222;BME280;26952;42.884;23.918;2023-03-25T05:59:18;95333.19;;;13.93;62.13
41222;BME280;26952;42.884;23.918;2023-03-25T06:01:44;95334.41;;;14.10;61.78
41222;BME280;26952;42.884;23.918;2023-03-25T06:04:11;95342.72;;;14.53;62.85
41222;BME280;26952;42.884;23.918;2023-03-25T06:06:38;95330.94;;;14.93;60.33
41222;BME280;26952;42.884;23.918;2023-03-25T06:09:05;95327.25;;;15.32;58.16
41222;BME280;26952;42.884;23.918;2023-03-25T06:11:31;95327.41;;;15.68;54.74
41222;BME280;26952;42.884;23.918;2023-03-25T06:14:02;95332.00;;;16.10;54.55
41222;BME280;26952;42.884;23.918;2023-03-25T06:16:28;95335.75;;;16.51;53.69
41222;BME280;26952;42.884;23.918;2023-03-25T06:18:54;95316.53;;;16.79;52.67
41222;BME280;26952;42.884;23.918;2023-03-25T06:21:27;95320.59;;;17.29;51.40
41222;BME280;26952;42.884;23.918;2023-03-25T06:23:53;95334.41;;;17.85;50.20
41222;BME280;26952;42.884;23.918;2023-03-25T06:26:21;95339.09;;;18.02;48.62
41222;BME280;26952;42.884;23.918;2023-03-25T06:28:47;95339.38;;;18.35;47.64
41222;BME280;26952;42.884;23.918;2023-03-25T06:31:14;95334.13;;;18.63;46.96
41222;BME280;26952;42.884;23.918;2023-03-25T06:33:45;95327.22;;;18.90;46.27
41222;BME280;26952;42.884;23.918;2023-03-25T06:36:13;95342.06;;;19.32;46.98
41222;BME280;26952;42.884;23.918;2023-03-25T06:38:45;95330.28;;;19.78;44.43
41222;BME280;26952;42.884;23.918;2023-03-25T06:41:11;95345.34;;;20.23;44.49
41222;BME280;26952;42.884;23.918;2023-03-25T06:43:38;95345.34;;;20.23;42.78
41222;BME280;26952;42.884;23.918;2023-03-25T06:46:04;95330.28;;;20.39;43.62
41222;BME280;26952;42.884;23.918;2023-03-25T06:48:29;95336.09;;;20.69;43.08
41222;BME280;26952;42.884;23.918;2023-03-25T06:50:55;95335.56;;;20.89;39.34
41222;BME280;26952;42.884;23.918;2023-03-25T06:53:21;95344.66;;;21.04;40.44
41222;BME280;26952;42.884;23.918;2023-03-25T06:55:46;95356.91;;;21.33;41.50
41222;BME280;26952;42.884;23.918;2023-03-25T06:58:12;95354.81;;;21.40;39.66
41222;BME280;26952;42.884;23.918;2023-03-25T07:00:37;95348.06;;;21.38;38.20
41222;BME280;26952;42.884;23.918;2023-03-25T07:03:03;95363.31;;;21.11;39.82
41222;BME280;26952;42.884;23.918;2023-03-25T07:05:28;95362.59;;;20.60;39.20
41222;BME280;26952;42.884;23.918;2023-03-25T07:07:54;95372.72;;;20.53;39.17
41222;BME280;26952;42.884;23.918;2023-03-25T07:10:19;95371.84;;;20.15;39.35
41222;BME280;26952;42.884;23.918;2023-03-25T07:12:45;95365.41;;;20.49;38.90
41222;BME280;26952;42.884;23.918;2023-03-25T07:15:10;95368.66;;;20.34;37.91
41222;BME280;26952;42.884;23.918;2023-03-25T07:17:36;95366.22;;;20.16;37.77
41222;BME280;26952;42.884;23.918;2023-03-25T07:20:03;95358.69;;;20.51;38.05
41222;BME280;26952;42.884;23.918;2023-03-25T07:22:29;95358.34;;;19.98;38.81
41222;BME280;26952;42.884;23.918;2023-03-25T07:24:55;95362.88;;;20.26;39.42
41222;BME280;26952;42.884;23.918;2023-03-25T07:27:23;95347.84;;;20.13;39.58
41222;BME280;26952;42.884;23.918;2023-03-25T07:29:48;95325.41;;;20.19;39.10
41222;BME280;26952;42.884;23.918;2023-03-25T07:32:14;95351.19;;;20.70;38.13
41222;BME280;26952;42.884;23.918;2023-03-25T07:34:39;95348.97;;;21.22;41.13
41222;BME280;26952;42.884;23.918;2023-03-25T07:37:05;95348.47;;;21.51;37.28
41222;BME280;26952;42.884;23.918;2023-03-25T07:39:32;95350.66;;;21.76;37.63
41222;BME280;26952;42.884;23.918;2023-03-25T07:41:57;95346.53;;;21.90;37.17
41222;BME280;26952;42.884;23.918;2023-03-25T07:44:23;95355.13;;;21.92;37.24
41222;BME280;26952;42.884;23.918;2023-03-25T07:46:48;95344.97;;;21.99;36.47
41222;BME280;26952;42.884;23.918;2023-03-25T07:49:15;95342.94;;;21.36;37.03
41222;BME280;26952;42.884;23.918;2023-03-25T07:51:41;95342.44;;;21.18;37.55
41222;BME280;26952;42.884;23.918;2023-03-25T07:54:06;95355.81;;;21.13;37.49
41222;BME280;26952;42.884;23.918;2023-03-25T07:56:32;95343.72;;;21.58;39.79
41222;BME280;26952;42.884;23.918;2023-03-25T07:58:58;95339.59;;;21.99;38.42
41222;BME280;26952;42.884;23.918;2023-03-25T08:01:23;95342.03;;;22.32;37.63
41222;BME280;26952;42.884;23.918;2023-03-25T08:03:49;95335.56;;;22.33;37.45
41222;BME280;26952;42.884;23.918;2023-03-25T08:06:14;95333.59;;;22.55;35.92
41222;BME280;26952;42.884;23.918;2023-03-25T08:08:40;95332.75;;;22.91;36.75
41222;BME280;26952;42.884;23.918;2023-03-25T08:11:06;95346.00;;;23.45;36.80
41222;BME280;26952;42.884;23.918;2023-03-25T08:13:32;95335.63;;;24.03;36.51
41222;BME280;26952;42.884;23.918;2023-03-25T08:15:57;95321.31;;;24.18;33.71
41222;BME280;26952;42.884;23.918;2023-03-25T08:18:23;95346.00;;;23.50;32.00
41222;BME280;26952;42.884;23.918;2023-03-25T08:20:48;95337.38;;;23.53;32.16
41222;BME280;26952;42.884;23.918;2023-03-25T08:23:17;95320.09;;;23.64;32.85
41222;BME280;26952;42.884;23.918;2023-03-25T08:25:46;95325.50;;;23.64;31.14
41222;BME280;26952;42.884;23.918;2023-03-25T08:28:14;95325.41;;;22.82;32.80
41222;BME280;26952;42.884;23.918;2023-03-25T08:30:41;95323.56;;;22.92;32.26
41222;BME280;26952;42.884;23.918;2023-03-25T08:33:08;95328.69;;;23.36;33.67
41222;BME280;26952;42.884;23.918;2023-03-25T08:35:35;95294.19;;;22.54;34.15
41222;BME280;26952;42.884;23.918;2023-03-25T08:38:01;95312.78;;;22.97;33.22
41222;BME280;26952;42.884;23.918;2023-03-25T08:40:30;95310.72;;;22.31;32.76
41222;BME280;26952;42.884;23.918;2023-03-25T08:42:56;95326.88;;;23.04;33.39
41222;BME280;26952;42.884;23.918;2023-03-25T08:45:22;95327.75;;;22.68;32.26
41222;BME280;26952;42.884;23.918;2023-03-25T08:47:47;95323.97;;;23.16;33.46
41222;BME280;26952;42.884;23.918;2023-03-25T08:50:12;95328.72;;;23.51;34.16
41222;BME280;26952;42.884;23.918;2023-03-25T08:52:38;95330.97;;;23.84;32.60
41222;BME280;26952;42.884;23.918;2023-03-25T08:55:04;95325.88;;;23.20;32.73
41222;BME280;26952;42.884;23.918;2023-03-25T08:57:33;95337.88;;;23.45;32.54
41222;BME280;26952;42.884;23.918;2023-03-25T08:59:59;95322.63;;;22.35;33.73
41222;BME280;26952;42.884;23.918;2023-03-25T09:02:25;95317.56;;;22.44;34.54
41222;BME280;26952;42.884;23.918;2023-03-25T09:04:50;95327.03;;;22.83;33.95
41222;BME280;26952;42.884;23.918;2023-03-25T09:07:16;95317.78;;;22.69;34.25
41222;BME280;26952;42.884;23.918;2023-03-25T09:09:44;95324.13;;;22.21;33.29
41222;BME280;26952;42.884;23.918;2023-03-25T09:12:09;95317.50;;;22.70;34.55
41222;BME280;26952;42.884;23.918;2023-03-25T09:14:35;95308.69;;;23.37;33.64
41222;BME280;26952;42.884;23.918;2023-03-25T09:17:01;95309.19;;;23.28;32.35
41222;BME280;26952;42.884;23.918;2023-03-25T09:19:26;95310.56;;;23.41;34.12
41222;BME280;26952;42.884;23.918;2023-03-25T09:21:52;95318.41;;;23.43;32.31
41222;BME280;26952;42.884;23.918;2023-03-25T09:24:17;95319.13;;;22.71;32.83
41222;BME280;26952;42.884;23.918;2023-03-25T09:26:43;95307.09;;;21.84;34.03
41222;BME280;26952;42.884;23.918;2023-03-25T09:29:08;95319.50;;;22.17;33.31
41222;BME280;26952;42.884;23.918;2023-03-25T09:31:34;95305.06;;;22.33;33.21
41222;BME280;26952;42.884;23.918;2023-03-25T09:34:00;95298.88;;;21.74;34.36
41222;BME280;26952;42.884;23.918;2023-03-25T09:36:25;95279.66;;;20.74;35.47
41222;BME280;26952;42.884;23.918;2023-03-25T09:38:51;95299.78;;;20.50;36.21
41222;BME280;26952;42.884;23.918;2023-03-25T09:46:55;95301.78;;;20.98;36.23
41222;BME280;26952;42.884;23.918;2023-03-25T09:49:28;95290.63;;;21.06;34.81
41222;BME280;26952;42.884;23.918;2023-03-25T09:51:57;95287.09;;;21.53;34.56
41222;BME280;26952;42.884;23.918;2023-03-25T09:54:29;95286.06;;;21.33;34.19
41222;BME280;26952;42.884;23.918;2023-03-25T09:57:00;95255.63;;;21.59;36.00
41222;BME280;26952;42.884;23.918;2023-03-25T09:59:41;95265.66;;;21.90;33.96
41222;BME280;26952;42.884;23.918;2023-03-25T10:07:35;95278.63;;;22.30;35.03
41222;BME280;26952;42.884;23.918;2023-03-25T10:24:12;95254.78;;;24.17;32.37
41222;BME280;26952;42.884;23.918;2023-03-25T10:26:52;95239.56;;;24.51;29.79
41222;BME280;26952;42.884;23.918;2023-03-25T10:29:25;95245.50;;;23.68;31.98
41222;BME280;26952;42.884;23.918;2023-03-25T10:31:55;95255.53;;;22.90;31.97
41222;BME280;26952;42.884;23.918;2023-03-25T10:34:31;95238.53;;;22.43;32.18
41222;BME280;26952;42.884;23.918;2023-03-25T10:36:59;95230.09;;;22.76;31.85
41222;BME280;26952;42.884;23.918;2023-03-25T10:39:30;95230.97;;;22.92;34.73
41222;BME280;26952;42.884;23.918;2023-03-25T10:42:02;95230.88;;;23.34;32.73
41222;BME280;26952;42.884;23.918;2023-03-25T10:44:29;95219.31;;;23.73;31.82
41222;BME280;26952;42.884;23.918;2023-03-25T10:47:03;95210.00;;;23.19;31.17
41222;BME280;26952;42.884;23.918;2023-03-25T10:49:31;95214.88;;;22.55;31.08
41222;BME280;26952;42.884;23.918;2023-03-25T10:51:58;95215.72;;;22.24;33.17
41222;BME280;26952;42.884;23.918;2023-03-25T10:54:34;95223.59;;;22.67;32.27
41222;BME280;26952;42.884;23.918;2023-03-25T10:57:02;95206.16;;;22.95;32.13
41222;BME280;26952;42.884;23.918;2023-03-25T11:02:21;95196.09;;;23.97;31.54
41222;BME280;26952;42.884;23.918;2023-03-25T11:04:50;95197.31;;;24.70;31.68
41222;BME280;26952;42.884;23.918;2023-03-25T11:07:22;95184.16;;;24.23;29.66
41222;BME280;26952;42.884;23.918;2023-03-25T11:09:50;95178.91;;;24.57;30.32
41222;BME280;26952;42.884;23.918;2023-03-25T11:12:19;95169.78;;;24.38;30.26
41222;BME280;26952;42.884;23.918;2023-03-25T11:14:52;95184.84;;;23.03;30.82
41222;BME280;26952;42.884;23.918;2023-03-25T11:17:18;95159.41;;;22.89;30.82
41222;BME280;26952;42.884;23.918;2023-03-25T11:19:58;95167.63;;;23.35;31.71
41222;BME280;26952;42.884;23.918;2023-03-25T11:22:29;95171.97;;;24.16;30.69
41222;BME280;26952;42.884;23.918;2023-03-25T11:24:59;95166.66;;;24.85;29.11
41222;BME280;26952;42.884;23.918;2023-03-25T11:27:27;95158.81;;;24.78;29.21
41222;BME280;26952;42.884;23.918;2023-03-25T11:30:15;95154.59;;;24.42;30.68
41222;BME280;26952;42.884;23.918;2023-03-25T11:32:41;95149.22;;;24.27;30.88
41222;BME280;26952;42.884;23.918;2023-03-25T11:35:15;95149.81;;;23.79;31.27
41222;BME280;26952;42.884;23.918;2023-03-25T11:37:58;95144.97;;;23.76;32.25
41222;BME280;26952;42.884;23.918;2023-03-25T11:40:26;95141.44;;;24.10;32.62
41222;BME280;26952;42.884;23.918;2023-03-25T11:42:55;95135.16;;;24.30;30.37
41222;BME280;26952;42.884;23.918;2023-03-25T11:47:48;95124.44;;;23.75;31.77
41222;BME280;26952;42.884;23.918;2023-03-25T11:50:26;95123.34;;;23.81;31.92
41222;BME280;26952;42.884;23.918;2023-03-25T11:52:58;95132.50;;;24.05;31.26
41222;BME280;26952;42.884;23.918;2023-03-25T11:55:27;95117.69;;;23.42;32.20
41222;BME280;26952;42.884;23.918;2023-03-25T11:57:55;95134.25;;;22.69;32.81
41222;BME280;26952;42.884;23.918;2023-03-25T12:00:38;95124.16;;;22.49;34.80
41222;BME280;26952;42.884;23.918;2023-03-25T12:03:16;95126.75;;;22.24;33.42
41222;BME280;26952;42.884;23.918;2023-03-25T12:05:56;95083.66;;;22.34;35.22
41222;BME280;26952;42.884;23.918;2023-03-25T12:08:22;95114.59;;;22.88;33.77
41222;BME280;26952;42.884;23.918;2023-03-25T12:10:54;95122.03;;;22.51;34.26
41222;BME280;26952;42.884;23.918;2023-03-25T12:13:33;95127.25;;;22.16;34.24
41222;BME280;26952;42.884;23.918;2023-03-25T12:22:00;95120.78;;;21.75;35.32
41222;BME280;26952;42.884;23.918;2023-03-25T12:24:56;95121.94;;;21.48;35.40
41222;BME280;26952;42.884;23.918;2023-03-25T12:30:03;95125.69;;;21.47;35.77
41222;BME280;26952;42.884;23.918;2023-03-25T12:35:40;95118.09;;;20.86;37.44
41222;BME280;26952;42.884;23.918;2023-03-25T12:41:16;95099.94;;;20.98;37.38
41222;BME280;26952;42.884;23.918;2023-03-25T12:46:56;95123.03;;;20.94;37.56
41222;BME280;26952;42.884;23.918;2023-03-25T12:55:16;95113.34;;;21.19;38.89
41222;BME280;26952;42.884;23.918;2023-03-25T13:03:54;95114.84;;;21.05;37.64
41222;BME280;26952;42.884;23.918;2023-03-25T13:06:30;95104.69;;;21.17;37.39
41222;BME280;26952;42.884;23.918;2023-03-25T13:09:17;95119.41;;;21.05;36.41
41222;BME280;26952;42.884;23.918;2023-03-25T13:11:51;95112.50;;;21.14;36.94
41222;BME280;26952;42.884;23.918;2023-03-25T13:14:35;95127.72;;;21.30;37.04
41222;BME280;26952;42.884;23.918;2023-03-25T13:17:06;95118.47;;;21.21;38.76
41222;BME280;26952;42.884;23.918;2023-03-25T13:19:36;95133.94;;;21.35;37.06
41222;BME280;26952;42.884;23.918;2023-03-25T13:22:28;95123.53;;;21.17;38.29
41222;BME280;26952;42.884;23.918;2023-03-25T13:24:58;95125.25;;;20.97;37.54
41222;BME280;26952;42.884;23.918;2023-03-25T13:27:31;95129.91;;;20.36;38.53
41222;BME280;26952;42.884;23.918;2023-03-25T13:29:59;95090.03;;;20.28;38.83
41222;BME280;26952;42.884;23.918;2023-03-25T13:32:30;95113.28;;;20.39;39.25
41222;BME280;26952;42.884;23.918;2023-03-25T13:35:12;95116.66;;;20.51;39.88
41222;BME280;26952;42.884;23.918;2023-03-25T13:37:40;95119.41;;;20.56;39.64
41222;BME280;26952;42.884;23.918;2023-03-25T13:46:07;95140.09;;;20.13;39.69
41222;BME280;26952;42.884;23.918;2023-03-25T13:51:10;95128.25;;;19.92;40.36
41222;BME280;26952;42.884;23.918;2023-03-25T13:56:45;95103.28;;;19.75;40.72
41222;BME280;26952;42.884;23.918;2023-03-25T13:59:21;95103.53;;;19.74;41.07
41222;BME280;26952;42.884;23.918;2023-03-25T14:02:40;95098.25;;;19.79;41.61
41222;BME280;26952;42.884;23.918;2023-03-25T14:13:28;95081.41;;;20.05;40.06
41222;BME280;26952;42.884;23.918;2023-03-25T14:16:03;95087.63;;;20.10;40.03
41222;BME280;26952;42.884;23.918;2023-03-25T14:18:31;95068.28;;;20.08;40.32
41222;BME280;26952;42.884;23.918;2023-03-25T14:21:56;95082.22;;;20.27;40.16
41222;BME280;26952;42.884;23.918;2023-03-25T14:24:32;95102.13;;;20.09;41.50
41222;BME280;26952;42.884;23.918;2023-03-25T14:27:03;95101.56;;;19.86;41.33
41222;BME280;26952;42.884;23.918;2023-03-25T14:32:00;95109.69;;;19.36;42.61
41222;BME280;26952;42.884;23.918;2023-03-25T14:34:26;95125.34;;;19.11;43.69
41222;BME280;26952;42.884;23.918;2023-03-25T14:42:41;95103.81;;;18.22;45.51
41222;BME280;26952;42.884;23.918;2023-03-25T14:44:48;95130.34;;;18.35;46.82
41222;BME280;26952;42.884;23.918;2023-03-25T14:52:46;95134.28;;;18.04;48.05
41222;BME280;26952;42.884;23.918;2023-03-25T14:55:26;95143.69;;;18.07;49.60
41222;BME280;26952;42.884;23.918;2023-03-25T14:58:04;95122.16;;;17.90;49.21
41222;BME280;26952;42.884;23.918;2023-03-25T15:00:40;95135.91;;;17.93;49.15
41222;BME280;26952;42.884;23.918;2023-03-25T15:03:13;95159.75;;;18.07;49.57
41222;BME280;26952;42.884;23.918;2023-03-25T15:05:44;95138.81;;;18.04;49.06
41222;BME280;26952;42.884;23.918;2023-03-25T15:08:25;95137.47;;;18.18;49.13
41222;BME280;26952;42.884;23.918;2023-03-25T15:11:08;95133.41;;;18.27;48.71
41222;BME280;26952;42.884;23.918;2023-03-25T15:13:41;95145.94;;;18.38;47.88